createdAt,value
2019-03-18T00:01:14.875Z,99.90
2019-03-18T00:04:09.609Z,99.90
2019-03-18T00:06:39.316Z,99.90
2019-03-18T00:09:11.118Z,99.90
2019-03-18T00:11:42.046Z,99.90
2019-03-18T00:14:11.396Z,99.90
2019-03-18T00:16:41.054Z,99.90
2019-03-18T00:19:11.053Z,99.90
2019-03-18T00:21:41.126Z,99.90
2019-03-18T00:24:11.467Z,99.90
2019-03-18T00:26:41.061Z,99.90
2019-03-18T00:29:11.965Z,99.90
2019-03-18T00:31:41.998Z,99.90
2019-03-18T00:34:11.946Z,99.90
2019-03-18T00:36:41.661Z,99.90
2019-03-18T00:39:11.845Z,99.90
2019-03-18T00:41:42.797Z,99.90
2019-03-18T00:44:12.761Z,99.90
2019-03-18T00:46:42.658Z,99.90
2019-03-18T00:49:12.615Z,99.90
2019-03-18T00:51:46.070Z,99.90
2019-03-18T00:54:15.698Z,99.90
2019-03-18T00:56:45.597Z,99.90
2019-03-18T00:59:15.193Z,99.90
2019-03-18T01:01:45.209Z,99.90
2019-03-18T01:04:14.872Z,99.90
2019-03-18T01:06:44.364Z,99.90
2019-03-18T01:09:14.123Z,99.90
2019-03-18T01:11:43.910Z,99.90
2019-03-18T01:14:13.690Z,99.90
2019-03-18T01:16:43.203Z,99.90
2019-03-18T01:19:13.528Z,99.90
2019-03-18T01:21:42.946Z,99.90
2019-03-18T01:24:12.897Z,99.90
2019-03-18T01:26:42.772Z,99.90
2019-03-18T01:29:12.470Z,99.90
2019-03-18T01:31:42.170Z,99.90
2019-03-18T01:34:12.075Z,99.90
2019-03-18T01:36:42.236Z,99.90
2019-03-18T01:39:12.242Z,99.90
2019-03-18T01:41:44.401Z,99.90
2019-03-18T01:44:14.123Z,99.90
2019-03-18T01:46:44.098Z,99.90
2019-03-18T01:49:14.271Z,99.90
2019-03-18T01:51:45.413Z,99.90
2019-03-18T01:54:15.665Z,99.90
2019-03-18T01:56:45.646Z,99.90
2019-03-18T01:59:15.548Z,99.90
2019-03-18T02:01:45.518Z,99.90
2019-03-18T02:04:15.879Z,99.90
2019-03-18T02:07:02.349Z,99.90
2019-03-18T02:09:19.935Z,99.90
2019-03-18T02:11:49.683Z,99.90
2019-03-18T02:14:19.596Z,99.90
2019-03-18T02:16:49.567Z,99.90
2019-03-18T02:19:19.174Z,99.90
2019-03-18T02:21:49.238Z,99.90
2019-03-18T02:24:19.018Z,99.90
2019-03-18T02:26:48.902Z,99.90
2019-03-18T02:29:18.667Z,99.90
2019-03-18T02:31:48.231Z,99.90
2019-03-18T02:34:18.198Z,99.90
2019-03-18T02:36:48.098Z,99.90
2019-03-18T02:39:19.521Z,99.90
2019-03-18T02:41:48.957Z,99.90
2019-03-18T02:44:19.073Z,99.90
2019-03-18T02:46:48.829Z,99.90
2019-03-18T02:49:20.091Z,99.90
2019-03-18T02:51:52.781Z,99.90
2019-03-18T02:54:21.256Z,99.90
2019-03-18T02:56:51.408Z,99.90
2019-03-18T02:59:21.010Z,99.90
2019-03-18T03:01:53.042Z,99.90
2019-03-18T03:04:23.282Z,99.90
2019-03-18T03:06:54.215Z,99.90
2019-03-18T03:09:23.958Z,99.90
2019-03-18T03:11:53.827Z,99.90
2019-03-18T03:14:23.399Z,99.90
2019-03-18T03:16:54.583Z,99.90
2019-03-18T03:19:24.268Z,99.90
2019-03-18T03:21:54.075Z,99.90
2019-03-18T03:24:24.196Z,99.90
2019-03-18T03:26:53.820Z,99.90
2019-03-18T03:29:23.591Z,99.90
2019-03-18T03:31:53.304Z,99.90
2019-03-18T03:34:23.971Z,99.90
2019-03-18T03:36:54.135Z,99.90
2019-03-18T03:39:25.715Z,99.90
2019-03-18T03:41:55.428Z,99.90
2019-03-18T03:44:25.066Z,99.90
2019-03-18T03:46:54.588Z,99.90
2019-03-18T03:49:24.096Z,99.90
2019-03-18T03:51:56.275Z,99.90
2019-03-18T03:54:27.952Z,99.90
2019-03-18T03:56:57.402Z,99.90
2019-03-18T03:59:28.330Z,99.90
2019-03-18T04:01:59.316Z,99.90
2019-03-18T04:04:30.843Z,99.90
2019-03-18T04:07:00.196Z,99.90
2019-03-18T04:09:29.836Z,99.90
2019-03-18T04:12:00.176Z,99.90
2019-03-18T04:14:29.818Z,99.90
2019-03-18T04:17:02.112Z,99.90
2019-03-18T04:19:31.206Z,99.90
2019-03-18T04:22:02.050Z,99.90
2019-03-18T04:24:31.856Z,99.90
2019-03-18T04:27:01.562Z,99.90
2019-03-18T04:29:33.686Z,99.90
2019-03-18T04:32:03.268Z,99.90
2019-03-18T04:34:33.026Z,99.90
2019-03-18T04:37:02.305Z,99.90
2019-03-18T04:39:32.018Z,99.90
2019-03-18T04:42:01.591Z,99.90
2019-03-18T04:44:31.138Z,99.90
2019-03-18T04:47:13.840Z,99.90
2019-03-18T04:49:35.327Z,99.90
2019-03-18T04:52:04.884Z,99.90
2019-03-18T04:54:34.361Z,99.90
2019-03-18T04:57:05.244Z,99.90
2019-03-18T04:59:35.771Z,99.90
2019-03-18T05:02:06.775Z,99.90
2019-03-18T05:04:38.149Z,99.90
2019-03-18T05:07:08.566Z,99.90
2019-03-18T05:09:38.122Z,99.90
2019-03-18T05:12:08.144Z,99.90
2019-03-18T05:14:37.887Z,99.90
2019-03-18T05:17:07.409Z,99.90
2019-03-18T05:19:37.985Z,99.90
2019-03-18T05:22:08.471Z,99.90
2019-03-18T05:24:38.236Z,99.90
2019-03-18T05:27:08.143Z,99.90
2019-03-18T05:29:37.881Z,99.90
2019-03-18T05:32:08.537Z,99.90
2019-03-18T05:34:38.666Z,99.90
2019-03-18T05:37:08.150Z,99.90
2019-03-18T05:39:37.952Z,99.90
2019-03-18T05:42:07.775Z,99.90
2019-03-18T05:44:37.774Z,99.90
2019-03-18T05:47:07.521Z,99.90
2019-03-18T05:49:36.990Z,99.90
2019-03-18T05:52:07.468Z,99.90
2019-03-18T05:54:37.126Z,99.90
2019-03-18T05:57:07.244Z,99.90
2019-03-18T05:59:37.065Z,99.90
2019-03-18T06:02:06.807Z,99.90
2019-03-18T06:04:36.179Z,99.90
2019-03-18T06:07:06.329Z,99.90
2019-03-18T06:09:36.029Z,99.90
2019-03-18T06:12:05.966Z,99.90
2019-03-18T06:14:35.855Z,99.90
2019-03-18T06:17:05.485Z,99.90
2019-03-18T06:19:35.567Z,99.90
2019-03-18T06:22:07.677Z,99.90
2019-03-18T06:24:36.816Z,99.90
2019-03-18T06:27:06.370Z,99.90
2019-03-18T06:29:36.250Z,99.90
2019-03-18T06:32:06.140Z,99.90
2019-03-18T06:34:36.005Z,99.90
2019-03-18T06:37:05.824Z,99.90
2019-03-18T06:39:35.614Z,99.90
2019-03-18T06:42:06.066Z,99.90
2019-03-18T06:44:35.775Z,99.90
2019-03-18T06:47:05.782Z,99.90
2019-03-18T06:49:35.263Z,99.90
2019-03-18T06:52:05.278Z,99.90
2019-03-18T06:54:38.885Z,99.90
2019-03-18T06:57:08.474Z,99.90
2019-03-18T06:59:38.415Z,99.90
2019-03-18T07:02:08.006Z,99.90
2019-03-18T07:04:37.924Z,99.90
2019-03-18T07:07:07.495Z,99.90
2019-03-18T07:09:37.428Z,99.90
2019-03-18T07:12:08.171Z,99.90
2019-03-18T07:14:37.879Z,99.90
2019-03-18T07:17:08.133Z,99.90
2019-03-18T07:19:37.721Z,99.90
2019-03-18T07:22:07.564Z,99.90
2019-03-18T07:24:36.986Z,99.90
2019-03-18T07:27:07.462Z,99.90
2019-03-18T07:29:37.069Z,99.90
2019-03-18T07:32:07.183Z,99.90
2019-03-18T07:34:38.729Z,99.90
2019-03-18T07:37:08.377Z,99.90
2019-03-18T07:39:46.088Z,99.90
2019-03-18T07:42:21.392Z,99.90
2019-03-18T07:44:51.341Z,99.90
2019-03-18T07:47:20.850Z,99.90
2019-03-18T07:49:58.702Z,99.90
2019-03-18T07:52:28.874Z,99.90
2019-03-18T07:55:00.831Z,99.90
2019-03-18T07:57:33.919Z,99.90
2019-03-18T08:00:07.374Z,99.90
2019-03-18T08:02:36.914Z,99.90
2019-03-18T08:05:07.794Z,99.90
2019-03-18T08:07:38.645Z,99.90
2019-03-18T08:10:08.237Z,99.90
2019-03-18T08:12:38.225Z,99.90
2019-03-18T08:15:07.892Z,99.90
2019-03-18T08:17:37.581Z,99.90
2019-03-18T08:20:07.822Z,99.90
2019-03-18T08:22:37.874Z,99.90
2019-03-18T08:25:07.427Z,99.90
2019-03-18T08:27:37.879Z,99.90
2019-03-18T08:30:08.046Z,99.90
2019-03-18T08:32:38.218Z,99.90
2019-03-18T08:35:07.686Z,99.90
2019-03-18T08:37:38.275Z,99.90
2019-03-18T08:40:08.434Z,99.90
2019-03-18T08:42:39.608Z,99.90
2019-03-18T08:45:09.805Z,99.90
2019-03-18T08:47:42.127Z,99.90
2019-03-18T08:50:12.456Z,99.90
2019-03-18T08:52:42.408Z,99.90
2019-03-18T08:55:13.298Z,99.90
2019-03-18T08:57:42.903Z,99.90
2019-03-18T09:00:13.392Z,99.90
2019-03-18T09:02:43.517Z,99.90
2019-03-18T09:05:13.345Z,99.90
2019-03-18T09:07:43.046Z,99.90
2019-03-18T09:10:13.311Z,99.90
2019-03-18T09:12:42.825Z,99.90
2019-03-18T09:15:12.895Z,99.90
2019-03-18T09:17:43.587Z,99.90
2019-03-18T09:20:13.537Z,99.90
2019-03-18T09:22:43.103Z,99.90
2019-03-18T09:25:13.236Z,99.90
2019-03-18T09:27:42.766Z,99.90
2019-03-18T09:30:12.697Z,99.90
2019-03-18T09:32:42.680Z,99.90
2019-03-18T09:35:12.140Z,99.90
2019-03-18T09:37:42.023Z,99.90
2019-03-18T09:40:11.679Z,99.90
2019-03-18T09:42:44.315Z,99.90
2019-03-18T09:45:14.346Z,99.90
2019-03-18T09:47:48.457Z,99.90
2019-03-18T09:50:17.875Z,99.90
2019-03-18T09:52:48.485Z,99.90
2019-03-18T09:55:18.426Z,99.90
2019-03-18T09:57:47.964Z,99.90
2019-03-18T10:00:18.416Z,99.90
2019-03-18T10:02:48.026Z,99.90
2019-03-18T10:05:18.281Z,99.90
2019-03-18T10:07:47.909Z,99.90
2019-03-18T10:10:17.213Z,99.90
2019-03-18T10:12:50.462Z,99.90
2019-03-18T10:15:19.812Z,99.90
2019-03-18T10:17:49.472Z,99.90
2019-03-18T10:20:18.839Z,99.90
2019-03-18T10:22:48.651Z,99.90
2019-03-18T10:25:18.090Z,99.90
2019-03-18T10:27:48.894Z,99.90
2019-03-18T10:30:18.279Z,99.90
2019-03-18T10:32:47.658Z,99.90
2019-03-18T10:35:17.305Z,99.90
2019-03-18T10:37:47.916Z,99.90
2019-03-18T10:40:17.847Z,99.90
2019-03-18T10:42:47.736Z,99.90
2019-03-18T10:45:20.204Z,99.90
2019-03-18T10:47:49.828Z,99.90
2019-03-18T10:50:19.467Z,99.90
2019-03-18T10:52:48.924Z,99.90
2019-03-18T10:55:18.477Z,99.90
2019-03-18T10:57:48.551Z,99.90
2019-03-18T11:00:17.997Z,99.90
2019-03-18T11:02:49.375Z,99.90
2019-03-18T11:05:18.835Z,99.90
2019-03-18T11:07:51.583Z,99.90
2019-03-18T11:10:20.247Z,99.90
2019-03-18T11:12:50.847Z,99.90
2019-03-18T11:15:20.336Z,99.90
2019-03-18T11:17:49.963Z,99.90
2019-03-18T11:20:20.400Z,99.90
2019-03-18T11:22:49.993Z,99.90
2019-03-18T11:25:20.057Z,99.90
2019-03-18T11:27:49.839Z,99.90
2019-03-18T11:30:20.473Z,99.90
2019-03-18T11:32:50.154Z,99.90
2019-03-18T11:35:22.056Z,99.90
2019-03-18T11:37:51.888Z,99.90
2019-03-18T11:40:21.884Z,99.90
2019-03-18T11:42:51.643Z,99.90
2019-03-18T11:45:21.117Z,99.90
2019-03-18T11:47:50.816Z,99.90
2019-03-18T11:50:20.779Z,99.90
2019-03-18T11:52:50.754Z,99.90
2019-03-18T11:55:20.492Z,99.90
2019-03-18T11:57:50.252Z,99.90
2019-03-18T12:00:20.264Z,99.90
2019-03-18T12:02:50.804Z,99.90
2019-03-18T12:05:20.802Z,99.90
2019-03-18T12:07:50.519Z,99.90
2019-03-18T12:10:20.119Z,99.90
2019-03-18T12:12:51.185Z,99.90
2019-03-18T12:15:21.647Z,99.90
2019-03-18T12:17:51.264Z,99.90
2019-03-18T12:20:24.666Z,99.90
2019-03-18T12:22:52.627Z,99.90
2019-03-18T12:25:22.013Z,99.90
2019-03-18T12:27:51.991Z,99.90
2019-03-18T12:30:21.811Z,99.90
2019-03-18T12:32:51.945Z,99.90
2019-03-18T12:35:21.907Z,99.90
2019-03-18T12:37:51.371Z,99.90
2019-03-18T12:40:21.071Z,99.90
2019-03-18T12:42:51.042Z,99.90
2019-03-18T12:45:22.130Z,99.90
2019-03-18T12:47:53.055Z,99.90
2019-03-18T12:50:38.849Z,99.90
2019-03-18T12:52:56.276Z,99.90
2019-03-18T12:55:26.118Z,99.90
2019-03-18T12:57:56.189Z,99.90
2019-03-18T13:00:26.372Z,99.90
2019-03-18T13:02:56.368Z,99.90
2019-03-18T13:05:26.383Z,99.90
2019-03-18T13:07:56.461Z,99.90
2019-03-18T13:10:26.385Z,99.90
2019-03-18T13:12:56.853Z,99.90
2019-03-18T13:15:27.797Z,99.90
2019-03-18T13:17:57.823Z,99.90
2019-03-18T13:20:28.789Z,99.90
2019-03-18T13:22:58.939Z,99.90
2019-03-18T13:25:28.578Z,99.90
2019-03-18T13:27:58.960Z,99.90
2019-03-18T13:30:29.204Z,99.90
2019-03-18T13:32:59.288Z,99.90
2019-03-18T13:35:29.404Z,99.90
2019-03-18T13:37:59.327Z,99.90
2019-03-18T13:40:29.305Z,99.90
2019-03-18T13:43:00.319Z,99.90
2019-03-18T13:45:30.468Z,99.90
2019-03-18T13:48:00.029Z,99.90
2019-03-18T13:50:30.384Z,99.90
2019-03-18T13:53:01.626Z,99.90
2019-03-18T13:55:34.760Z,99.90
2019-03-18T13:58:04.369Z,99.90
2019-03-18T14:00:34.105Z,99.90
2019-03-18T14:03:04.162Z,99.90
2019-03-18T14:05:33.572Z,99.90
2019-03-18T14:08:03.440Z,99.90
2019-03-18T14:10:33.017Z,99.90
2019-03-18T14:13:03.714Z,99.90
2019-03-18T14:15:33.254Z,99.90
2019-03-18T14:18:04.098Z,99.90
2019-03-18T14:20:33.725Z,99.90
2019-03-18T14:23:04.199Z,99.90
2019-03-18T14:25:33.650Z,99.90
2019-03-18T14:28:04.943Z,99.90
2019-03-18T14:30:34.805Z,99.90
2019-03-18T14:33:07.504Z,99.90
2019-03-18T14:35:37.350Z,99.90
2019-03-18T14:38:07.421Z,99.90
2019-03-18T14:40:36.967Z,99.90
2019-03-18T14:43:06.793Z,99.90
2019-03-18T14:45:36.561Z,99.90
2019-03-18T14:48:06.419Z,99.90
2019-03-18T14:50:36.696Z,99.90
2019-03-18T14:53:06.611Z,99.90
2019-03-18T14:55:36.566Z,98.30
2019-03-18T14:58:06.191Z,99.80
2019-03-18T15:00:36.230Z,99.70
2019-03-18T15:03:05.962Z,98.80
2019-03-18T15:05:37.762Z,95.80
2019-03-18T15:08:07.536Z,94.60
2019-03-18T15:10:38.105Z,91.90
2019-03-18T15:13:07.711Z,92.70
2019-03-18T15:15:37.382Z,92.30
2019-03-18T15:18:07.546Z,94.00
2019-03-18T15:20:37.107Z,98.00
2019-03-18T15:23:07.431Z,97.10
2019-03-18T15:25:37.407Z,96.80
2019-03-18T15:28:07.310Z,99.90
2019-03-18T15:30:37.946Z,99.90
2019-03-18T15:33:07.828Z,99.90
2019-03-18T15:35:38.274Z,99.90
2019-03-18T15:38:08.482Z,99.90
2019-03-18T15:40:38.616Z,99.90
2019-03-18T15:43:09.247Z,99.90
2019-03-18T15:45:42.131Z,99.90
2019-03-18T15:48:12.281Z,99.90
2019-03-18T15:50:42.278Z,99.90
2019-03-18T15:53:12.489Z,99.90
2019-03-18T15:55:55.172Z,99.90
2019-03-18T15:58:25.137Z,99.90
2019-03-18T16:00:56.416Z,99.90
2019-03-18T16:03:26.384Z,99.90
2019-03-18T16:05:56.825Z,99.90
2019-03-18T16:08:29.724Z,99.90
2019-03-18T16:10:59.637Z,99.90
2019-03-18T16:13:30.058Z,99.90
2019-03-18T16:16:00.308Z,99.90
2019-03-18T16:18:30.377Z,99.90
2019-03-18T16:21:00.129Z,99.90
2019-03-18T16:23:31.087Z,99.90
2019-03-18T16:26:00.818Z,99.90
2019-03-18T16:28:31.260Z,99.90
2019-03-18T16:31:01.516Z,99.90
2019-03-18T16:33:34.029Z,99.90
2019-03-18T16:36:07.427Z,99.90
2019-03-18T16:38:37.576Z,99.90
2019-03-18T16:41:08.111Z,99.90
2019-03-18T16:43:40.918Z,99.90
2019-03-18T16:46:11.255Z,99.90
2019-03-18T16:48:41.067Z,99.90
2019-03-18T16:51:11.112Z,99.90
2019-03-18T16:53:44.030Z,99.90
2019-03-18T16:56:14.488Z,99.90
2019-03-18T16:58:46.166Z,99.90
2019-03-18T17:01:16.349Z,99.90
2019-03-18T17:03:48.018Z,99.90
2019-03-18T17:06:18.673Z,99.90
2019-03-18T17:08:48.673Z,99.90
2019-03-18T17:11:18.858Z,99.90
2019-03-18T17:13:49.078Z,99.90
2019-03-18T17:16:19.289Z,99.90
2019-03-18T17:18:49.494Z,99.90
2019-03-18T17:21:19.622Z,99.90
2019-03-18T17:23:50.376Z,99.90
2019-03-18T17:26:21.670Z,99.90
2019-03-18T17:28:52.970Z,99.90
2019-03-18T17:31:31.661Z,99.90
2019-03-18T17:34:10.722Z,99.90
2019-03-18T17:36:43.902Z,99.90
2019-03-18T17:39:14.794Z,99.90
2019-03-18T17:41:53.036Z,99.90
2019-03-18T17:44:23.036Z,99.90
2019-03-18T17:46:53.842Z,99.90
2019-03-18T17:49:24.237Z,99.90
2019-03-18T17:51:54.822Z,99.90
2019-03-18T17:54:24.373Z,99.90
2019-03-18T17:57:06.464Z,99.90
2019-03-18T17:59:25.690Z,99.90
2019-03-18T18:01:55.284Z,99.90
2019-03-18T18:04:24.895Z,99.90
2019-03-18T18:06:54.300Z,99.90
2019-03-18T18:09:23.838Z,99.90
2019-03-18T18:11:54.945Z,99.90
2019-03-18T18:14:25.229Z,99.90
2019-03-18T18:16:54.569Z,99.90
2019-03-18T18:19:24.125Z,99.90
2019-03-18T18:21:54.860Z,99.90
2019-03-18T18:24:24.396Z,99.90
2019-03-18T18:26:53.938Z,99.90
2019-03-18T18:29:23.756Z,99.90
2019-03-18T18:31:53.281Z,99.90
2019-03-18T18:34:22.847Z,99.90
2019-03-18T18:36:52.336Z,99.90
2019-03-18T18:39:21.813Z,99.90
2019-03-18T18:41:51.236Z,99.90
2019-03-18T18:44:20.902Z,99.90
2019-03-18T18:46:50.648Z,99.90
2019-03-18T18:49:20.064Z,99.90
2019-03-18T18:51:49.693Z,99.90
2019-03-18T18:54:19.384Z,99.90
2019-03-18T18:56:48.697Z,99.90
2019-03-18T18:59:19.518Z,99.90
2019-03-18T19:01:49.255Z,99.90
2019-03-18T19:04:18.877Z,99.90
2019-03-18T19:06:48.328Z,99.90
2019-03-18T19:09:18.777Z,99.90
2019-03-18T19:11:49.513Z,99.90
2019-03-18T19:14:18.996Z,99.90
2019-03-18T19:16:48.829Z,99.90
2019-03-18T19:19:18.696Z,99.90
2019-03-18T19:21:48.305Z,99.90
2019-03-18T19:24:18.096Z,99.90
2019-03-18T19:26:48.067Z,99.90
2019-03-18T19:29:17.432Z,99.90
2019-03-18T19:31:47.414Z,99.90
2019-03-18T19:34:17.084Z,99.90
2019-03-18T19:36:47.661Z,99.90
2019-03-18T19:39:17.432Z,99.90
2019-03-18T19:41:47.133Z,99.90
2019-03-18T19:44:16.950Z,99.90
2019-03-18T19:46:46.489Z,99.90
2019-03-18T19:49:16.373Z,99.90
2019-03-18T19:51:45.851Z,99.90
2019-03-18T19:54:15.649Z,99.90
2019-03-18T19:56:45.317Z,99.90
2019-03-18T19:59:16.843Z,99.90
2019-03-18T20:01:46.570Z,99.90
2019-03-18T20:04:17.302Z,99.90
2019-03-18T20:06:46.799Z,99.90
2019-03-18T20:09:16.798Z,99.90
2019-03-18T20:11:46.626Z,99.90
2019-03-18T20:14:16.808Z,99.90
2019-03-18T20:16:49.584Z,99.90
2019-03-18T20:19:19.168Z,99.90
2019-03-18T20:21:48.978Z,99.90
2019-03-18T20:24:19.718Z,99.90
2019-03-18T20:26:49.393Z,99.90
2019-03-18T20:29:19.124Z,99.90
2019-03-18T20:31:48.521Z,99.90
2019-03-18T20:34:18.176Z,99.90
2019-03-18T20:36:49.606Z,99.90
2019-03-18T20:39:20.938Z,99.90
2019-03-18T20:41:50.683Z,99.90
2019-03-18T20:44:20.468Z,99.90
2019-03-18T20:46:50.510Z,99.90
2019-03-18T20:49:20.187Z,99.90
2019-03-18T20:51:50.918Z,99.90
2019-03-18T20:54:22.053Z,99.90
2019-03-18T20:56:52.300Z,99.90
2019-03-18T20:59:24.868Z,99.90
2019-03-18T21:01:54.753Z,99.90
2019-03-18T21:04:25.821Z,99.90
2019-03-18T21:06:55.807Z,99.90
2019-03-18T21:09:25.678Z,99.90
2019-03-18T21:12:00.412Z,99.90
2019-03-18T21:14:38.274Z,99.90
2019-03-18T21:17:07.864Z,99.90
2019-03-18T21:19:40.269Z,99.90
2019-03-18T21:22:10.544Z,99.90
2019-03-18T21:24:40.255Z,99.90
2019-03-18T21:27:15.538Z,99.90
2019-03-18T21:29:47.119Z,99.90
2019-03-18T21:32:16.678Z,99.90
2019-03-18T21:34:46.013Z,99.90
2019-03-18T21:37:15.900Z,99.90
2019-03-18T21:39:47.336Z,99.90
2019-03-18T21:42:17.019Z,99.90
2019-03-18T21:44:47.537Z,99.90
2019-03-18T21:47:16.889Z,99.90
2019-03-18T21:49:46.709Z,99.90
2019-03-18T21:52:16.773Z,99.90
2019-03-18T21:54:46.219Z,99.90
2019-03-18T21:57:17.558Z,99.90
2019-03-18T21:59:46.965Z,99.90
2019-03-18T22:02:16.669Z,99.90
2019-03-18T22:04:46.264Z,99.90
2019-03-18T22:07:16.425Z,99.90
2019-03-18T22:09:45.832Z,99.90
2019-03-18T22:12:15.795Z,99.90
2019-03-18T22:14:47.163Z,99.90
2019-03-18T22:17:17.080Z,99.90
2019-03-18T22:19:46.473Z,99.90
2019-03-18T22:22:16.077Z,99.90
2019-03-18T22:24:45.919Z,99.90
2019-03-18T22:27:15.517Z,99.90
2019-03-18T22:29:45.100Z,99.90
2019-03-18T22:32:14.531Z,99.90
2019-03-18T22:34:44.020Z,99.90
2019-03-18T22:37:13.857Z,99.90
2019-03-18T22:39:43.350Z,99.90
2019-03-18T22:42:13.329Z,99.90
2019-03-18T22:44:43.801Z,99.90
2019-03-18T22:47:13.594Z,99.90
2019-03-18T22:49:43.014Z,99.90
2019-03-18T22:52:14.360Z,99.90
2019-03-18T22:54:43.825Z,99.90
2019-03-18T22:57:13.877Z,99.90
2019-03-18T22:59:43.453Z,99.90
2019-03-18T23:02:13.535Z,99.90
2019-03-18T23:04:42.887Z,99.90
2019-03-18T23:07:12.282Z,99.90
2019-03-18T23:09:42.052Z,99.90
2019-03-18T23:12:11.698Z,99.90
2019-03-18T23:14:42.861Z,99.90
2019-03-18T23:17:12.660Z,99.90
2019-03-18T23:19:43.065Z,99.90
2019-03-18T23:22:13.145Z,99.90
2019-03-18T23:24:43.560Z,99.90
2019-03-18T23:27:14.885Z,99.90
2019-03-18T23:29:44.262Z,99.90
2019-03-18T23:32:14.037Z,99.90
2019-03-18T23:34:43.578Z,99.90
2019-03-18T23:37:13.561Z,99.90
2019-03-18T23:39:44.068Z,99.90
2019-03-18T23:42:15.114Z,99.90
2019-03-18T23:44:44.602Z,99.90
2019-03-18T23:47:14.337Z,99.90
2019-03-18T23:49:47.585Z,99.90
2019-03-18T23:52:17.209Z,99.90
2019-03-18T23:54:47.072Z,99.90
2019-03-18T23:57:16.733Z,99.90
2019-03-18T23:59:46.129Z,99.90
